sensor_id;sensor_type;location;lat;lon;timestamp;P1;durP1;ratioP1;P2;durP2;ratioP2
19113;SDS011;9689;51.052;13.772;2023-07-08T00:01:37;8.65;;;4.95;;
19113;SDS011;9689;51.052;13.772;2023-07-08T00:06:39;7.32;;;4.28;;
19113;SDS011;9689;51.052;13.772;2023-07-08T00:11:40;9.70;;;4.35;;
19113;SDS011;9689;51.052;13.772;2023-07-08T00:16:40;9.55;;;4.15;;
19113;SDS011;9689;51.052;13.772;2023-07-08T00:21:42;10.05;;;4.15;;
19113;SDS011;9689;51.052;13.772;2023-07-08T00:26:43;6.78;;;4.13;;
19113;SDS011;9689;51.052;13.772;2023-07-08T00:31:44;6.95;;;4.03;;
19113;SDS011;9689;51.052;13.772;2023-07-08T00:36:46;9.07;;;3.95;;
19113;SDS011;9689;51.052;13.772;2023-07-08T00:41:46;7.22;;;3.92;;
19113;SDS011;9689;51.052;13.772;2023-07-08T00:46:50;8.43;;;4.45;;
19113;SDS011;9689;51.052;13.772;2023-07-08T00:57:18;7.15;;;4.03;;
19113;SDS011;9689;51.052;13.772;2023-07-08T01:02:20;5.65;;;3.83;;
19113;SDS011;9689;51.052;13.772;2023-07-08T01:07:25;9.68;;;4.10;;
19113;SDS011;9689;51.052;13.772;2023-07-08T01:12:29;8.32;;;3.63;;
19113;SDS011;9689;51.052;13.772;2023-07-08T01:17:33;12.10;;;4.20;;
19113;SDS011;9689;51.052;13.772;2023-07-08T01:22:35;9.88;;;4.43;;
19113;SDS011;9689;51.052;13.772;2023-07-08T01:27:38;6.75;;;3.35;;
19113;SDS011;9689;51.052;13.772;2023-07-08T01:32:43;7.68;;;4.20;;
19113;SDS011;9689;51.052;13.772;2023-07-08T01:37:51;6.15;;;3.53;;
19113;SDS011;9689;51.052;13.772;2023-07-08T01:42:55;5.22;;;3.78;;
19113;SDS011;9689;51.052;13.772;2023-07-08T01:47:56;8.32;;;4.30;;
19113;SDS011;9689;51.052;13.772;2023-07-08T01:53:02;7.43;;;4.05;;
19113;SDS011;9689;51.052;13.772;2023-07-08T01:58:09;8.07;;;4.75;;
19113;SDS011;9689;51.052;13.772;2023-07-08T02:03:09;7.20;;;3.97;;
19113;SDS011;9689;51.052;13.772;2023-07-08T02:08:12;5.63;;;3.70;;
19113;SDS011;9689;51.052;13.772;2023-07-08T02:13:12;6.57;;;4.18;;
19113;SDS011;9689;51.052;13.772;2023-07-08T02:18:13;10.77;;;3.92;;
19113;SDS011;9689;51.052;13.772;2023-07-08T02:23:15;5.72;;;3.78;;
19113;SDS011;9689;51.052;13.772;2023-07-08T02:28:16;6.05;;;3.90;;
19113;SDS011;9689;51.052;13.772;2023-07-08T02:33:17;6.40;;;4.25;;
19113;SDS011;9689;51.052;13.772;2023-07-08T02:38:19;5.38;;;3.72;;
19113;SDS011;9689;51.052;13.772;2023-07-08T02:43:19;5.65;;;4.30;;
19113;SDS011;9689;51.052;13.772;2023-07-08T02:48:20;8.27;;;3.97;;
19113;SDS011;9689;51.052;13.772;2023-07-08T02:53:23;6.03;;;3.97;;
19113;SDS011;9689;51.052;13.772;2023-07-08T02:58:24;8.00;;;4.10;;
19113;SDS011;9689;51.052;13.772;2023-07-08T03:03:24;7.22;;;4.43;;
19113;SDS011;9689;51.052;13.772;2023-07-08T03:08:29;9.70;;;4.60;;
19113;SDS011;9689;51.052;13.772;2023-07-08T03:13:30;9.43;;;4.15;;
19113;SDS011;9689;51.052;13.772;2023-07-08T03:18:32;7.85;;;4.35;;
19113;SDS011;9689;51.052;13.772;2023-07-08T03:23:39;8.55;;;4.32;;
19113;SDS011;9689;51.052;13.772;2023-07-08T03:28:41;7.97;;;3.92;;
19113;SDS011;9689;51.052;13.772;2023-07-08T03:33:43;6.65;;;3.83;;
19113;SDS011;9689;51.052;13.772;2023-07-08T03:38:45;11.43;;;4.72;;
19113;SDS011;9689;51.052;13.772;2023-07-08T03:43:46;9.77;;;3.83;;
19113;SDS011;9689;51.052;13.772;2023-07-08T03:48:48;5.30;;;3.95;;
19113;SDS011;9689;51.052;13.772;2023-07-08T03:53:50;7.43;;;4.13;;
19113;SDS011;9689;51.052;13.772;2023-07-08T03:58:53;9.80;;;4.18;;
19113;SDS011;9689;51.052;13.772;2023-07-08T04:03:55;6.82;;;3.85;;
19113;SDS011;9689;51.052;13.772;2023-07-08T04:08:59;7.32;;;4.57;;
19113;SDS011;9689;51.052;13.772;2023-07-08T04:13:59;8.02;;;3.88;;
19113;SDS011;9689;51.052;13.772;2023-07-08T04:19:01;10.57;;;3.63;;
19113;SDS011;9689;51.052;13.772;2023-07-08T04:24:03;10.23;;;3.80;;
19113;SDS011;9689;51.052;13.772;2023-07-08T04:29:04;6.68;;;3.78;;
19113;SDS011;9689;51.052;13.772;2023-07-08T04:34:04;7.20;;;3.30;;
19113;SDS011;9689;51.052;13.772;2023-07-08T04:39:07;6.85;;;3.83;;
19113;SDS011;9689;51.052;13.772;2023-07-08T04:44:09;7.25;;;3.83;;
19113;SDS011;9689;51.052;13.772;2023-07-08T04:49:11;10.98;;;3.80;;
19113;SDS011;9689;51.052;13.772;2023-07-08T04:54:14;6.15;;;3.20;;
19113;SDS011;9689;51.052;13.772;2023-07-08T04:59:16;5.93;;;4.07;;
19113;SDS011;9689;51.052;13.772;2023-07-08T05:04:19;6.95;;;3.65;;
19113;SDS011;9689;51.052;13.772;2023-07-08T05:09:22;8.68;;;3.97;;
19113;SDS011;9689;51.052;13.772;2023-07-08T05:14:25;8.60;;;3.50;;
19113;SDS011;9689;51.052;13.772;2023-07-08T05:19:26;6.80;;;3.80;;
19113;SDS011;9689;51.052;13.772;2023-07-08T05:24:28;5.53;;;3.58;;
19113;SDS011;9689;51.052;13.772;2023-07-08T05:29:29;4.45;;;2.55;;
19113;SDS011;9689;51.052;13.772;2023-07-08T05:34:30;4.70;;;3.20;;
19113;SDS011;9689;51.052;13.772;2023-07-08T05:39:32;5.35;;;3.00;;
19113;SDS011;9689;51.052;13.772;2023-07-08T05:44:33;5.80;;;3.00;;
19113;SDS011;9689;51.052;13.772;2023-07-08T05:49:34;4.32;;;3.03;;
19113;SDS011;9689;51.052;13.772;2023-07-08T05:54:37;6.10;;;3.13;;
19113;SDS011;9689;51.052;13.772;2023-07-08T05:59:38;7.22;;;2.80;;
19113;SDS011;9689;51.052;13.772;2023-07-08T06:04:40;6.03;;;2.75;;
19113;SDS011;9689;51.052;13.772;2023-07-08T06:09:42;5.63;;;2.60;;
19113;SDS011;9689;51.052;13.772;2023-07-08T06:14:43;4.78;;;2.70;;
19113;SDS011;9689;51.052;13.772;2023-07-08T06:19:43;5.13;;;3.03;;
19113;SDS011;9689;51.052;13.772;2023-07-08T06:24:46;6.72;;;2.97;;
19113;SDS011;9689;51.052;13.772;2023-07-08T06:29:47;7.35;;;3.20;;
19113;SDS011;9689;51.052;13.772;2023-07-08T06:34:48;8.52;;;2.90;;
19113;SDS011;9689;51.052;13.772;2023-07-08T06:39:50;4.70;;;2.83;;
19113;SDS011;9689;51.052;13.772;2023-07-08T06:44:50;5.07;;;2.67;;
19113;SDS011;9689;51.052;13.772;2023-07-08T06:49:52;4.60;;;2.50;;
19113;SDS011;9689;51.052;13.772;2023-07-08T06:54:58;6.53;;;2.97;;
19113;SDS011;9689;51.052;13.772;2023-07-08T07:00:03;5.47;;;2.83;;
19113;SDS011;9689;51.052;13.772;2023-07-08T07:05:06;7.45;;;2.80;;
19113;SDS011;9689;51.052;13.772;2023-07-08T07:10:09;7.03;;;3.03;;
19113;SDS011;9689;51.052;13.772;2023-07-08T07:15:13;8.07;;;3.25;;
19113;SDS011;9689;51.052;13.772;2023-07-08T07:20:14;6.43;;;3.00;;
19113;SDS011;9689;51.052;13.772;2023-07-08T07:25:16;8.20;;;2.97;;
19113;SDS011;9689;51.052;13.772;2023-07-08T07:30:19;6.32;;;2.83;;
19113;SDS011;9689;51.052;13.772;2023-07-08T07:35:21;5.75;;;2.78;;
19113;SDS011;9689;51.052;13.772;2023-07-08T07:40:23;6.32;;;3.03;;
19113;SDS011;9689;51.052;13.772;2023-07-08T07:45:24;4.70;;;2.75;;
19113;SDS011;9689;51.052;13.772;2023-07-08T07:50:25;6.68;;;3.15;;
19113;SDS011;9689;51.052;13.772;2023-07-08T07:55:27;8.82;;;2.85;;
19113;SDS011;9689;51.052;13.772;2023-07-08T08:00:31;5.28;;;2.90;;
19113;SDS011;9689;51.052;13.772;2023-07-08T08:05:35;6.25;;;2.92;;
19113;SDS011;9689;51.052;13.772;2023-07-08T08:10:37;6.10;;;3.33;;
19113;SDS011;9689;51.052;13.772;2023-07-08T08:15:38;7.75;;;3.08;;
19113;SDS011;9689;51.052;13.772;2023-07-08T08:20:39;4.07;;;2.97;;
19113;SDS011;9689;51.052;13.772;2023-07-08T08:25:42;5.72;;;3.33;;
19113;SDS011;9689;51.052;13.772;2023-07-08T08:30:46;5.20;;;3.50;;
19113;SDS011;9689;51.052;13.772;2023-07-08T08:35:47;5.38;;;3.20;;
19113;SDS011;9689;51.052;13.772;2023-07-08T08:40:50;6.15;;;3.25;;
19113;SDS011;9689;51.052;13.772;2023-07-08T08:45:53;8.35;;;3.40;;
19113;SDS011;9689;51.052;13.772;2023-07-08T08:51:00;5.07;;;3.38;;
19113;SDS011;9689;51.052;13.772;2023-07-08T08:56:11;5.07;;;3.08;;
19113;SDS011;9689;51.052;13.772;2023-07-08T09:01:18;7.07;;;3.30;;
19113;SDS011;9689;51.052;13.772;2023-07-08T09:06:20;7.68;;;3.85;;
19113;SDS011;9689;51.052;13.772;2023-07-08T09:11:34;5.32;;;3.53;;
19113;SDS011;9689;51.052;13.772;2023-07-08T09:16:40;6.90;;;3.25;;
19113;SDS011;9689;51.052;13.772;2023-07-08T09:21:48;6.32;;;3.05;;
19113;SDS011;9689;51.052;13.772;2023-07-08T09:26:55;3.47;;;2.45;;
19113;SDS011;9689;51.052;13.772;2023-07-08T09:31:59;4.18;;;2.85;;
19113;SDS011;9689;51.052;13.772;2023-07-08T09:37:20;8.77;;;2.85;;
19113;SDS011;9689;51.052;13.772;2023-07-08T09:42:28;4.43;;;2.50;;
19113;SDS011;9689;51.052;13.772;2023-07-08T09:47:32;6.00;;;3.03;;
19113;SDS011;9689;51.052;13.772;2023-07-08T09:52:35;6.88;;;2.70;;
19113;SDS011;9689;51.052;13.772;2023-07-08T09:57:37;7.00;;;2.85;;
19113;SDS011;9689;51.052;13.772;2023-07-08T10:02:39;4.90;;;2.75;;
19113;SDS011;9689;51.052;13.772;2023-07-08T10:07:42;4.53;;;2.80;;
19113;SDS011;9689;51.052;13.772;2023-07-08T10:12:49;4.53;;;3.28;;
19113;SDS011;9689;51.052;13.772;2023-07-08T10:17:55;4.13;;;2.60;;
19113;SDS011;9689;51.052;13.772;2023-07-08T10:22:59;6.47;;;3.55;;
19113;SDS011;9689;51.052;13.772;2023-07-08T10:28:10;3.72;;;2.80;;
19113;SDS011;9689;51.052;13.772;2023-07-08T10:33:38;3.92;;;2.70;;
19113;SDS011;9689;51.052;13.772;2023-07-08T10:38:53;3.90;;;2.67;;
19113;SDS011;9689;51.052;13.772;2023-07-08T10:44:06;6.22;;;3.28;;
19113;SDS011;9689;51.052;13.772;2023-07-08T10:49:22;3.10;;;2.38;;
19113;SDS011;9689;51.052;13.772;2023-07-08T10:54:39;5.72;;;3.03;;
19113;SDS011;9689;51.052;13.772;2023-07-08T10:59:52;6.10;;;2.80;;
19113;SDS011;9689;51.052;13.772;2023-07-08T11:05:02;6.47;;;3.28;;
19113;SDS011;9689;51.052;13.772;2023-07-08T11:10:16;4.57;;;2.78;;
19113;SDS011;9689;51.052;13.772;2023-07-08T11:15:23;6.88;;;3.53;;
19113;SDS011;9689;51.052;13.772;2023-07-08T11:20:32;5.88;;;2.83;;
19113;SDS011;9689;51.052;13.772;2023-07-08T11:25:38;4.63;;;3.10;;
19113;SDS011;9689;51.052;13.772;2023-07-08T11:30:43;4.72;;;2.67;;
19113;SDS011;9689;51.052;13.772;2023-07-08T11:35:48;7.40;;;2.92;;
19113;SDS011;9689;51.052;13.772;2023-07-08T11:40:52;7.22;;;2.63;;
19113;SDS011;9689;51.052;13.772;2023-07-08T11:46:02;5.20;;;2.95;;
19113;SDS011;9689;51.052;13.772;2023-07-08T11:51:05;5.07;;;2.70;;
19113;SDS011;9689;51.052;13.772;2023-07-08T11:56:18;4.95;;;2.70;;
19113;SDS011;9689;51.052;13.772;2023-07-08T12:01:24;5.05;;;2.88;;
19113;SDS011;9689;51.052;13.772;2023-07-08T12:06:46;4.57;;;2.40;;
19113;SDS011;9689;51.052;13.772;2023-07-08T12:11:49;7.10;;;3.60;;
19113;SDS011;9689;51.052;13.772;2023-07-08T12:16:55;4.07;;;2.70;;
19113;SDS011;9689;51.052;13.772;2023-07-08T12:21:56;5.22;;;2.97;;
19113;SDS011;9689;51.052;13.772;2023-07-08T12:26:57;6.75;;;3.00;;
19113;SDS011;9689;51.052;13.772;2023-07-08T12:31:59;6.50;;;3.00;;
19113;SDS011;9689;51.052;13.772;2023-07-08T12:37:00;4.97;;;2.70;;
19113;SDS011;9689;51.052;13.772;2023-07-08T12:42:07;5.40;;;2.72;;
19113;SDS011;9689;51.052;13.772;2023-07-08T12:47:12;5.28;;;3.35;;
19113;SDS011;9689;51.052;13.772;2023-07-08T12:52:18;6.28;;;2.72;;
19113;SDS011;9689;51.052;13.772;2023-07-08T12:57:21;4.25;;;2.50;;
19113;SDS011;9689;51.052;13.772;2023-07-08T13:02:23;3.63;;;2.95;;
19113;SDS011;9689;51.052;13.772;2023-07-08T13:07:31;4.78;;;2.53;;
19113;SDS011;9689;51.052;13.772;2023-07-08T13:12:36;5.07;;;3.22;;
19113;SDS011;9689;51.052;13.772;2023-07-08T13:17:40;6.80;;;3.35;;
19113;SDS011;9689;51.052;13.772;2023-07-08T13:22:42;4.20;;;2.95;;
19113;SDS011;9689;51.052;13.772;2023-07-08T13:27:53;6.45;;;3.03;;
19113;SDS011;9689;51.052;13.772;2023-07-08T13:32:57;5.50;;;3.28;;
19113;SDS011;9689;51.052;13.772;2023-07-08T13:37:59;6.75;;;3.40;;
19113;SDS011;9689;51.052;13.772;2023-07-08T13:43:00;4.60;;;2.83;;
19113;SDS011;9689;51.052;13.772;2023-07-08T13:48:14;4.13;;;2.88;;
19113;SDS011;9689;51.052;13.772;2023-07-08T13:53:22;4.22;;;2.60;;
19113;SDS011;9689;51.052;13.772;2023-07-08T13:58:26;3.58;;;2.72;;
19113;SDS011;9689;51.052;13.772;2023-07-08T14:03:30;4.68;;;2.83;;
19113;SDS011;9689;51.052;13.772;2023-07-08T14:08:30;4.82;;;2.90;;
19113;SDS011;9689;51.052;13.772;2023-07-08T14:13:31;8.13;;;3.13;;
19113;SDS011;9689;51.052;13.772;2023-07-08T14:18:33;7.82;;;2.97;;
19113;SDS011;9689;51.052;13.772;2023-07-08T14:23:34;6.10;;;3.25;;
19113;SDS011;9689;51.052;13.772;2023-07-08T14:28:34;5.95;;;3.30;;
19113;SDS011;9689;51.052;13.772;2023-07-08T14:33:36;5.13;;;3.30;;
19113;SDS011;9689;51.052;13.772;2023-07-08T14:38:38;5.80;;;3.15;;
19113;SDS011;9689;51.052;13.772;2023-07-08T14:43:38;4.70;;;3.10;;
19113;SDS011;9689;51.052;13.772;2023-07-08T14:48:40;3.33;;;2.65;;
19113;SDS011;9689;51.052;13.772;2023-07-08T14:53:41;5.93;;;2.85;;
19113;SDS011;9689;51.052;13.772;2023-07-08T14:58:43;5.07;;;3.47;;
19113;SDS011;9689;51.052;13.772;2023-07-08T15:03:47;5.28;;;2.97;;
19113;SDS011;9689;51.052;13.772;2023-07-08T15:08:47;4.22;;;2.50;;
19113;SDS011;9689;51.052;13.772;2023-07-08T15:13:48;7.07;;;3.20;;
19113;SDS011;9689;51.052;13.772;2023-07-08T15:18:50;4.40;;;3.00;;
19113;SDS011;9689;51.052;13.772;2023-07-08T15:23:51;3.97;;;3.10;;
19113;SDS011;9689;51.052;13.772;2023-07-08T15:28:52;4.50;;;2.95;;
19113;SDS011;9689;51.052;13.772;2023-07-08T15:33:55;6.50;;;3.35;;
19113;SDS011;9689;51.052;13.772;2023-07-08T15:38:55;3.75;;;2.80;;
19113;SDS011;9689;51.052;13.772;2023-07-08T15:43:56;4.68;;;2.85;;
19113;SDS011;9689;51.052;13.772;2023-07-08T15:48:59;4.80;;;2.75;;
19113;SDS011;9689;51.052;13.772;2023-07-08T15:54:00;5.82;;;3.00;;
19113;SDS011;9689;51.052;13.772;2023-07-08T15:59:00;4.30;;;2.72;;
19113;SDS011;9689;51.052;13.772;2023-07-08T16:04:03;3.67;;;3.05;;
19113;SDS011;9689;51.052;13.772;2023-07-08T16:09:04;3.60;;;2.88;;
19113;SDS011;9689;51.052;13.772;2023-07-08T16:14:05;5.65;;;3.15;;
19113;SDS011;9689;51.052;13.772;2023-07-08T16:19:12;4.40;;;3.08;;
19113;SDS011;9689;51.052;13.772;2023-07-08T16:24:14;6.35;;;3.00;;
19113;SDS011;9689;51.052;13.772;2023-07-08T16:29:15;5.20;;;3.75;;
19113;SDS011;9689;51.052;13.772;2023-07-08T16:34:18;5.95;;;4.03;;
19113;SDS011;9689;51.052;13.772;2023-07-08T16:39:18;8.48;;;3.95;;
19113;SDS011;9689;51.052;13.772;2023-07-08T16:44:19;5.25;;;3.35;;
19113;SDS011;9689;51.052;13.772;2023-07-08T16:49:21;3.13;;;2.78;;
19113;SDS011;9689;51.052;13.772;2023-07-08T16:54:22;5.43;;;3.17;;
19113;SDS011;9689;51.052;13.772;2023-07-08T16:59:23;6.07;;;2.90;;
19113;SDS011;9689;51.052;13.772;2023-07-08T17:04:25;3.53;;;2.67;;
19113;SDS011;9689;51.052;13.772;2023-07-08T17:09:26;3.90;;;2.55;;
19113;SDS011;9689;51.052;13.772;2023-07-08T17:14:27;3.90;;;2.80;;
19113;SDS011;9689;51.052;13.772;2023-07-08T17:19:29;5.47;;;3.30;;
19113;SDS011;9689;51.052;13.772;2023-07-08T17:24:30;6.25;;;3.30;;
19113;SDS011;9689;51.052;13.772;2023-07-08T17:29:30;2.80;;;2.33;;
19113;SDS011;9689;51.052;13.772;2023-07-08T17:34:32;4.32;;;3.33;;
19113;SDS011;9689;51.052;13.772;2023-07-08T17:39:35;4.97;;;2.95;;
19113;SDS011;9689;51.052;13.772;2023-07-08T17:44:35;4.20;;;2.70;;
19113;SDS011;9689;51.052;13.772;2023-07-08T17:49:37;4.55;;;2.92;;
19113;SDS011;9689;51.052;13.772;2023-07-08T17:54:39;4.10;;;2.90;;
19113;SDS011;9689;51.052;13.772;2023-07-08T17:59:39;4.20;;;3.05;;
19113;SDS011;9689;51.052;13.772;2023-07-08T18:04:41;6.60;;;3.30;;
19113;SDS011;9689;51.052;13.772;2023-07-08T18:09:43;4.43;;;2.58;;
19113;SDS011;9689;51.052;13.772;2023-07-08T18:14:48;5.22;;;3.15;;
19113;SDS011;9689;51.052;13.772;2023-07-08T18:19:50;4.07;;;3.67;;
19113;SDS011;9689;51.052;13.772;2023-07-08T18:24:51;4.50;;;2.90;;
19113;SDS011;9689;51.052;13.772;2023-07-08T18:29:51;3.92;;;3.20;;
19113;SDS011;9689;51.052;13.772;2023-07-08T18:34:53;9.00;;;3.78;;
19113;SDS011;9689;51.052;13.772;2023-07-08T18:39:54;6.50;;;3.38;;
19113;SDS011;9689;51.052;13.772;2023-07-08T18:44:55;5.65;;;3.55;;
19113;SDS011;9689;51.052;13.772;2023-07-08T18:49:57;5.75;;;3.63;;
19113;SDS011;9689;51.052;13.772;2023-07-08T18:54:57;7.00;;;4.22;;
19113;SDS011;9689;51.052;13.772;2023-07-08T18:59:58;8.27;;;3.42;;
19113;SDS011;9689;51.052;13.772;2023-07-08T19:05:01;5.88;;;3.53;;
19113;SDS011;9689;51.052;13.772;2023-07-08T19:10:02;6.03;;;3.65;;
19113;SDS011;9689;51.052;13.772;2023-07-08T19:15:15;5.88;;;3.28;;
19113;SDS011;9689;51.052;13.772;2023-07-08T19:20:19;8.02;;;3.65;;
19113;SDS011;9689;51.052;13.772;2023-07-08T19:25:25;5.78;;;3.97;;
19113;SDS011;9689;51.052;13.772;2023-07-08T19:30:26;7.15;;;4.38;;
19113;SDS011;9689;51.052;13.772;2023-07-08T19:35:32;7.95;;;4.20;;
19113;SDS011;9689;51.052;13.772;2023-07-08T19:40:34;11.02;;;4.80;;
19113;SDS011;9689;51.052;13.772;2023-07-08T19:45:35;7.20;;;4.35;;
19113;SDS011;9689;51.052;13.772;2023-07-08T19:50:38;7.18;;;4.45;;
19113;SDS011;9689;51.052;13.772;2023-07-08T19:55:39;7.32;;;3.65;;
19113;SDS011;9689;51.052;13.772;2023-07-08T20:00:41;8.02;;;4.68;;
19113;SDS011;9689;51.052;13.772;2023-07-08T20:05:46;9.50;;;4.35;;
19113;SDS011;9689;51.052;13.772;2023-07-08T20:10:47;9.18;;;4.47;;
19113;SDS011;9689;51.052;13.772;2023-07-08T20:15:51;12.30;;;4.68;;
19113;SDS011;9689;51.052;13.772;2023-07-08T20:20:53;6.13;;;4.07;;
19113;SDS011;9689;51.052;13.772;2023-07-08T20:25:57;7.65;;;4.43;;
19113;SDS011;9689;51.052;13.772;2023-07-08T20:30:58;8.15;;;4.22;;
19113;SDS011;9689;51.052;13.772;2023-07-08T20:36:00;8.48;;;5.22;;
19113;SDS011;9689;51.052;13.772;2023-07-08T20:41:01;8.25;;;4.53;;
19113;SDS011;9689;51.052;13.772;2023-07-08T20:46:02;9.73;;;5.18;;
19113;SDS011;9689;51.052;13.772;2023-07-08T20:51:05;7.95;;;5.03;;
19113;SDS011;9689;51.052;13.772;2023-07-08T20:56:09;20.30;;;4.93;;
19113;SDS011;9689;51.052;13.772;2023-07-08T21:01:15;8.40;;;5.10;;
19113;SDS011;9689;51.052;13.772;2023-07-08T21:06:17;11.35;;;4.90;;
19113;SDS011;9689;51.052;13.772;2023-07-08T21:11:21;8.93;;;5.20;;
19113;SDS011;9689;51.052;13.772;2023-07-08T21:16:23;11.30;;;4.85;;
19113;SDS011;9689;51.052;13.772;2023-07-08T21:21:27;8.65;;;5.03;;
19113;SDS011;9689;51.052;13.772;2023-07-08T21:26:28;9.13;;;5.63;;
19113;SDS011;9689;51.052;13.772;2023-07-08T21:31:30;14.13;;;6.47;;
19113;SDS011;9689;51.052;13.772;2023-07-08T21:36:33;10.68;;;6.47;;
19113;SDS011;9689;51.052;13.772;2023-07-08T21:41:36;10.88;;;5.75;;
19113;SDS011;9689;51.052;13.772;2023-07-08T21:46:36;11.02;;;6.10;;
19113;SDS011;9689;51.052;13.772;2023-07-08T21:51:39;13.65;;;6.55;;
19113;SDS011;9689;51.052;13.772;2023-07-08T21:56:40;12.13;;;5.65;;
19113;SDS011;9689;51.052;13.772;2023-07-08T22:01:41;9.00;;;5.93;;
19113;SDS011;9689;51.052;13.772;2023-07-08T22:06:43;11.02;;;6.32;;
19113;SDS011;9689;51.052;13.772;2023-07-08T22:11:44;11.48;;;5.68;;
19113;SDS011;9689;51.052;13.772;2023-07-08T22:16:45;10.07;;;5.80;;
19113;SDS011;9689;51.052;13.772;2023-07-08T22:22:07;7.57;;;4.93;;
19113;SDS011;9689;51.052;13.772;2023-07-08T22:27:09;17.60;;;5.93;;
19113;SDS011;9689;51.052;13.772;2023-07-08T22:32:10;12.35;;;5.57;;
19113;SDS011;9689;51.052;13.772;2023-07-08T22:37:12;9.52;;;6.40;;
19113;SDS011;9689;51.052;13.772;2023-07-08T22:42:13;10.13;;;6.57;;
19113;SDS011;9689;51.052;13.772;2023-07-08T22:47:15;11.48;;;5.82;;
19113;SDS011;9689;51.052;13.772;2023-07-08T22:52:22;10.23;;;5.90;;
19113;SDS011;9689;51.052;13.772;2023-07-08T22:57:28;10.38;;;5.25;;
19113;SDS011;9689;51.052;13.772;2023-07-08T23:02:29;9.35;;;5.93;;
19113;SDS011;9689;51.052;13.772;2023-07-08T23:07:31;8.25;;;5.72;;
19113;SDS011;9689;51.052;13.772;2023-07-08T23:12:32;11.93;;;5.35;;
19113;SDS011;9689;51.052;13.772;2023-07-08T23:17:33;8.95;;;5.50;;
19113;SDS011;9689;51.052;13.772;2023-07-08T23:22:39;9.13;;;5.85;;
19113;SDS011;9689;51.052;13.772;2023-07-08T23:27:40;10.50;;;6.38;;
19113;SDS011;9689;51.052;13.772;2023-07-08T23:32:41;11.55;;;6.43;;
19113;SDS011;9689;51.052;13.772;2023-07-08T23:37:44;11.00;;;6.20;;
19113;SDS011;9689;51.052;13.772;2023-07-08T23:42:45;10.48;;;6.22;;
19113;SDS011;9689;51.052;13.772;2023-07-08T23:47:46;11.05;;;6.18;;
19113;SDS011;9689;51.052;13.772;2023-07-08T23:52:48;11.15;;;5.80;;
19113;SDS011;9689;51.052;13.772;2023-07-08T23:57:49;10.38;;;6.30;;
